TAF Text Data
IDs:
Format:
Raw Decoded Include METAR

Data at: 0200 UTC 24 May 2019

Region: TOP
KATL 240142Z 2402/2506 21005KT P6SM VCSH SCT060
  FM240300 19003KT P6SM FEW060
  FM241500 29006KT P6SM FEW045
  FM241800 28006KT P6SM SCT060
  FM250100 29003KT P6SM FEW250


KBOS 240016Z 2400/2506 20014G22KT P6SM VCSH BKN015 OVC070
  FM240300 21014G22KT P6SM -SHRA VCTS SCT012 OVC035CB
  TEMPO 2403/2405 4SM SHRA BR BKN012 OVC030
  FM240500 23010G18KT P6SM BKN080 WS020/27040KT
  FM241100 30013G22KT P6SM SCT100
  FM241400 31018G31KT P6SM BKN050
  FM242200 35014G24KT P6SM SCT050
  FM250300 02009KT P6SM SCT060


KBWI 232324Z 2400/2506 24007KT P6SM BKN110
  FM240400 27007KT P6SM VCSH SCT250
  FM240600 28007KT P6SM FEW040
  FM241200 31010G18KT P6SM FEW250
  FM242200 33011KT P6SM FEW150


KCLE 232330Z 2400/2506 29015G25KT P6SM SCT050
  FM240800 30006KT P6SM FEW250
  FM242000 36006KT P6SM BKN110
  FM242300 05005KT P6SM BKN100


KCLT 232333Z 2400/2506 23005KT P6SM FEW040 SCT250
  FM241300 26005KT P6SM FEW250
  FM241600 29008KT P6SM FEW050
  FM250100 33005KT P6SM FEW240


KCVG 232334Z 2400/2506 18003KT P6SM FEW035 BKN100 OVC220
  FM240100 26005KT P6SM SCT250
  FM240500 30003KT P6SM SCT045
  FM241200 02003KT P6SM BKN045
  FM241800 18007KT P6SM BKN070
  FM242100 21004KT P6SM SCT080
  FM250100 19004KT P6SM FEW250


KDCA 232324Z 2400/2506 18009KT P6SM SCT080 BKN110
  FM240800 30007KT P6SM FEW250
  FM241200 32010G18KT P6SM FEW250
  FM242200 33011KT P6SM FEW250
  FM250200 02005KT P6SM FEW090


KDEN 232339Z 2400/2506 13008KT P6SM SCT025 OVC035
  TEMPO 2400/2402 5SM -SHRA BR BKN015 OVC025
  FM240300 15010KT P6SM SCT035 BKN080
  FM240700 18010KT P6SM FEW080 SCT200
  FM241100 20008KT P6SM FEW200
  FM241700 24012KT P6SM FEW200


KDFW 232321Z 2400/2506 15018G28KT P6SM SCT050
  FM240100 15016KT P6SM SCT050
  FM240600 15015KT P6SM SCT015 BKN020
  FM241500 17017G27KT P6SM BKN040


KDTW 240059Z 2401/2506 29012KT P6SM SKC
  FM240300 28010KT P6SM FEW250
  FM241200 VRB05KT P6SM BKN250
  FM241800 14006KT P6SM BKN070 BKN200


KEWR 232320Z 2400/2506 20008KT P6SM SCT100 BKN250
  TEMPO 2402/2404 5SM -SHRA BKN035
  FM240400 23010KT P6SM SCT050 BKN100
  FM240600 28012G21KT P6SM SCT040 SCT250
  FM241400 31018G29KT P6SM FEW040 SCT250
  FM242100 32018G25KT P6SM FEW250
  FM250000 34012G21KT P6SM FEW250
  FM250400 36008KT P6SM FEW250


KFLL 232346Z 2400/2506 07015KT P6SM SCT025 SCT035
  FM240200 09015KT P6SM SCT030
  FM241400 07015KT P6SM SCT035


KIAD 232324Z 2400/2506 22007KT P6SM SCT110
  FM240300 26005KT P6SM VCSH SCT110
  FM240600 28007KT P6SM FEW040
  FM241300 32010G20KT P6SM FEW250
  FM242200 33011KT P6SM FEW250
  FM250200 36006KT P6SM FEW070


KIAH 232325Z 2400/2506 14015G25KT P6SM VCSH BKN025 BKN040
  FM240200 14015KT P6SM BKN020
  FM240800 15010KT P6SM BKN018
  FM241600 15014G22KT P6SM SCT025 BKN035
  FM250200 14018G24KT P6SM BKN030


KJFK 232320Z 2400/2506 19012KT P6SM FEW040 BKN120
  TEMPO 2402/2404 5SM -SHRA BKN040
  FM240400 24011KT P6SM SCT050 BKN100
  FM240600 28014G23KT P6SM SCT040 SCT250
  FM241400 30020G30KT P6SM FEW040 SCT250
  FM242000 33017G27KT P6SM FEW250
  FM250000 35014G21KT P6SM FEW250
  FM250400 02008KT P6SM FEW250


KLAS 232320Z 2400/2506 20014G22KT P6SM VCSH SCT060 BKN100
  FM240300 20007KT P6SM FEW060 BKN100
  FM241400 VRB05KT P6SM SCT080
  FM242100 10007KT P6SM SCT090


KLAX 232347Z 2400/2506 23011KT P6SM BKN030
  FM240600 VRB03KT P6SM OVC025
  FM242000 26013KT P6SM SCT035


KLGA 232320Z 2400/2506 19011KT P6SM FEW040 BKN120
  TEMPO 2402/2404 5SM -SHRA BKN035
  FM240400 24010KT P6SM SCT050 BKN100
  FM240600 28013G23KT P6SM SCT040 SCT250
  FM241400 30019G30KT P6SM FEW040 SCT250
  FM242000 32016G27KT P6SM FEW250
  FM250000 34014G21KT P6SM FEW250
  FM250400 01008KT P6SM FEW250


KMCO 232320Z 2400/2506 06012KT P6SM SCT040
  FM240200 06008KT P6SM FEW040
  FM240600 05004KT P6SM SKC
  FM241400 07009KT P6SM FEW030
  FM241800 07012KT P6SM FEW050
  FM250100 07008KT P6SM FEW040


KMDW 232332Z 2400/2506 30010KT P6SM SCT250
  FM240400 03006KT P6SM FEW120 BKN250
  FM241200 07009KT 6SM -SHRA SCT020 BKN050
  PROB30 2412/2415 3SM -TSRA SCT015CB OVC035
  FM241600 12010G15KT P6SM SCT025 BKN050
  FM250300 18010KT P6SM VCSH SCT050 BKN120


KMEM 232320Z 2400/2506 18008KT P6SM FEW050 SCT250
  FM240200 18006KT P6SM SCT250
  FM241500 20008KT P6SM SCT050 SCT250


KMIA 232346Z 2400/2506 06015KT P6SM SCT035
  FM240200 08012KT P6SM SCT030
  FM241400 07015KT P6SM SCT035


KMSP 232327Z 2400/2506 31009KT P6SM SCT030 BKN040
  FM240700 09006KT P6SM VCSH SCT040 BKN090
  FM241200 10008KT 6SM -SHRA BR BKN025 OVC040
  FM241500 11012G20KT 6SM -SHRA BR SCT008 OVC012
  FM241900 15013G23KT P6SM SCT010 OVC015
  FM250000 18011KT P6SM SCT015 BKN035


KORD 232332Z 2400/2506 30010KT P6SM SCT250
  FM240400 03006KT P6SM FEW120 BKN250
  FM241200 07009KT 6SM -SHRA SCT020 BKN050
  PROB30 2412/2415 3SM -TSRA SCT015CB OVC035
  FM241600 12010G15KT P6SM SCT025 BKN050
  FM250300 18010KT P6SM VCSH SCT050 BKN120


KPDX 232342Z 2400/2424 27008KT P6SM FEW040 SCT200
  FM240600 32005KT P6SM SKC
  FM241000 29007KT P6SM OVC015
  FM241500 23010KT P6SM -DZ SCT015 OVC025
  FM241900 27006KT P6SM BKN025 OVC050
  FM242100 25007KT P6SM SCT025 BKN050


KPHL 232321Z 2400/2506 19008KT P6SM BKN150
  FM240300 23007KT P6SM VCSH BKN060 WS020/25045KT
  TEMPO 2403/2405 3SM TSRA BKN030CB
  FM240600 27008KT P6SM SCT060 WS020/25045KT
  FM241200 30013G22KT P6SM FEW250
  FM241600 32020G28KT P6SM FEW060
  FM250100 34012KT P6SM FEW200


KPHX 232332Z 2400/2506 29005KT P6SM SKC
  FM240600 06004KT P6SM SKC
  FM242100 23006KT P6SM SKC


KPIT 232325Z 2400/2506 26012G20KT P6SM SCT050
  FM240200 30007KT P6SM SCT120
  FM241500 31012G18KT P6SM SCT100
  FM242300 32005KT P6SM SCT100


KSAN 232320Z 2400/2506 23010KT P6SM SCT030 BKN060
  FM240200 VRB04KT P6SM SCT020 BKN035
  FM241100 VRB03KT P6SM BKN030
  FM242000 29010KT P6SM SCT030
  FM250300 VRB05KT P6SM SCT030


KSEA 232320Z 2400/2506 28006KT P6SM FEW040 SCT200
  FM240300 23006KT P6SM SCT200
  FM241100 20012KT P6SM BKN012 OVC020
  FM242000 18012KT P6SM VCSH BKN020 BKN030


KSFO 232327Z 2400/2506 28014KT P6SM FEW040
  FM240300 23008KT P6SM FEW015
  FM240900 23006KT P6SM BKN015
  FM241730 20005KT P6SM SCT015
  FM242100 28012KT P6SM SCT040
  FM250400 29008KT P6SM FEW015


KSLC 240027Z 2400/2506 14010KT P6SM -SHRA SCT025 BKN045
  FM240300 16010KT P6SM VCSH SCT040 BKN080
  FM240700 15007KT P6SM -RA SCT025 OVC040
  FM241400 25007KT 5SM -RA SCT022 OVC035
  FM241700 17009KT P6SM VCSH SCT035 OVC060
  FM250100 15007KT P6SM SCT050 BKN090


KSTL 232340Z 2400/2506 VRB04KT P6SM SCT050 BKN250
  FM240300 09006KT P6SM BKN040
  FM240900 17007KT P6SM SCT250
  FM241500 21011G19KT P6SM SCT040 BKN250


KTPA 232339Z 2400/2506 08011G17KT P6SM FEW060
  FM240300 08008KT P6SM SKC
  FM240600 06004KT P6SM SKC
  FM241400 08008KT P6SM SKC
  FM241700 06008KT P6SM FEW050
  FM242000 04008KT P6SM SCT060
  FM250100 08008KT P6SM FEW060
  FM250400 08004KT P6SM SKC